Time;durP1;ratioP1;P1;durP2;ratioP2;P2;SDS_P1;SDS_P2;PMS_P1;PMS_P2;Temp;Humidity;BMP_temperature;BMP_pressure;BME280_temperature;BME280_humidity;BME280_pressure;Samples;Min_cycle;Max_cycle;Signal;HPM_P1;HPM_P2
2021/12/25 00:03:32;;;;;;;191.75;158.55;;;19.80;45.40;;;;;;4339041;60;21116;-33
2021/12/25 00:08:34;;;;;;;193.55;156.30;;;19.80;45.40;;;;;;4340465;60;21569;-33
2021/12/25 00:13:35;;;;;;;186.20;151.82;;;19.80;45.40;;;;;;4354391;60;21043;-36
2021/12/25 00:18:38;;;;;;;186.00;152.70;;;19.80;45.40;;;;;;4359715;60;21201;-31
2021/12/25 00:23:39;;;;;;;190.43;153.87;;;19.80;45.80;;;;;;4352991;60;21691;-36
2021/12/25 00:28:53;;;;;;;179.05;146.77;;;19.80;45.30;;;;;;4365225;60;21521;-35
2021/12/25 00:34:00;;;;;;;173.93;143.30;;;19.80;45.30;;;;;;4347252;60;21533;-35
2021/12/25 00:39:01;;;;;;;180.80;146.33;;;19.80;45.30;;;;;;4352318;60;21581;-34
2021/12/25 00:44:02;;;;;;;181.90;150.55;;;19.80;45.30;;;;;;4338826;61;21083;-36
2021/12/25 00:49:02;;;;;;;179.38;147.35;;;19.80;45.30;;;;;;4344637;60;22024;-26
2021/12/25 00:54:04;;;;;;;172.98;142.65;;;19.80;45.60;;;;;;4381115;60;21137;-36
2021/12/25 00:59:05;;;;;;;174.82;141.95;;;19.80;45.30;;;;;;4348591;60;21056;-35
2021/12/25 01:04:05;;;;;;;170.95;143.10;;;19.80;45.30;;;;;;4339417;60;21093;-32
2021/12/25 01:09:07;;;;;;;169.20;140.93;;;19.80;45.30;;;;;;4346540;60;21055;-37
2021/12/25 01:14:58;;;;;;;175.82;140.90;;;19.80;45.30;;;;;;4338803;64;21159;-35
2021/12/25 01:48:59;;;;;;;157.80;133.60;;;19.80;45.40;;;;;;4338663;60;21103;-33
2021/12/25 01:54:00;;;;;;;156.82;131.85;;;19.80;45.20;;;;;;4356265;60;21538;-34
2021/12/25 01:59:04;;;;;;;158.85;131.30;;;19.80;45.20;;;;;;4338520;64;21072;-34
2021/12/25 02:04:05;;;;;;;158.23;131.57;;;19.80;45.20;;;;;;4343022;60;21083;-37
2021/12/25 02:09:06;;;;;;;152.85;128.82;;;19.80;45.20;;;;;;4361185;60;21098;-36
2021/12/25 02:14:08;;;;;;;154.02;129.12;;;19.80;45.20;;;;;;4338881;61;21152;-36
2021/12/25 02:19:20;;;;;;;152.10;126.20;;;19.80;45.20;;;;;;4346309;60;21116;-35
2021/12/25 02:24:21;;;;;;;145.38;121.37;;;19.70;45.10;;;;;;4359612;60;21102;-35
2021/12/25 02:29:22;;;;;;;148.05;125.78;;;19.70;45.10;;;;;;4372582;60;21083;-37
2021/12/25 02:34:23;;;;;;;149.57;126.47;;;19.80;45.20;;;;;;4344932;60;21060;-35
2021/12/25 02:39:24;;;;;;;142.40;119.22;;;19.80;45.20;;;;;;4358490;60;21084;-34
2021/12/25 02:44:25;;;;;;;148.68;123.50;;;19.70;45.20;;;;;;4381917;60;21529;-34
2021/12/25 02:49:26;;;;;;;139.93;118.87;;;19.70;45.20;;;;;;4348407;60;21040;-34
2021/12/25 02:54:27;;;;;;;135.15;113.20;;;19.70;45.20;;;;;;4343124;60;21075;-32
2021/12/25 02:59:27;;;;;;;140.37;115.53;;;19.70;45.10;;;;;;4357554;60;21155;-33
2021/12/25 03:04:28;;;;;;;139.70;118.43;;;19.70;45.20;;;;;;4362007;60;21056;-34
2021/12/25 03:09:29;;;;;;;135.65;115.65;;;19.70;45.20;;;;;;4342575;60;21074;-34
2021/12/25 03:14:49;;;;;;;134.00;114.22;;;19.70;45.10;;;;;;4342895;60;21517;-35
2021/12/25 03:19:50;;;;;;;137.88;114.68;;;19.70;45.10;;;;;;4377157;60;21175;-31
2021/12/25 03:24:51;;;;;;;129.18;110.43;;;19.70;45.20;;;;;;4338958;64;21643;-35
2021/12/25 03:29:52;;;;;;;128.32;110.53;;;19.70;45.10;;;;;;4360762;60;21183;-37
2021/12/25 03:34:53;;;;;;;130.93;109.87;;;19.70;45.20;;;;;;4341163;60;21063;-33
2021/12/25 03:39:54;;;;;;;128.85;110.57;;;19.70;45.20;;;;;;4340991;60;21522;-32
2021/12/25 03:44:55;;;;;;;129.73;109.78;;;19.70;45.10;;;;;;4338550;64;21104;-35
2021/12/25 04:00:36;;;;;;;125.45;106.10;;;19.70;45.20;;;;;;4337772;60;21144;-34
2021/12/25 04:05:40;;;;;;;120.37;101.80;;;19.70;45.20;;;;;;4339384;64;21548;-35
2021/12/25 04:10:43;;;;;;;121.55;105.05;;;19.70;45.20;;;;;;4351912;60;21510;-34
2021/12/25 04:15:44;;;;;;;116.12;98.78;;;19.70;45.20;;;;;;4369155;60;21059;-33
2021/12/25 04:20:45;;;;;;;120.20;102.70;;;19.70;45.30;;;;;;4349880;60;21670;-36
2021/12/25 04:25:46;;;;;;;117.95;100.62;;;19.70;45.20;;;;;;4343721;60;21064;-33
2021/12/25 05:02:57;;;;;;;110.72;94.45;;;19.70;45.30;;;;;;4364590;60;21702;-34
2021/12/25 05:07:58;;;;;;;103.97;90.70;;;19.70;45.40;;;;;;4356115;60;21059;-32
2021/12/25 05:12:59;;;;;;;108.72;94.15;;;19.70;45.40;;;;;;4345196;60;21084;-35
2021/12/25 05:18:01;;;;;;;108.32;91.85;;;19.70;45.50;;;;;;4339215;64;22053;-36
2021/12/25 05:23:02;;;;;;;104.87;88.97;;;19.70;45.50;;;;;;4337893;64;21639;-34
2021/12/25 05:28:03;;;;;;;105.60;90.93;;;19.70;45.50;;;;;;4341329;60;21143;-35
2021/12/25 05:33:04;;;;;;;101.87;85.87;;;19.70;45.60;;;;;;4339303;64;21059;-34
2021/12/25 05:38:12;;;;;;;101.07;86.12;;;19.70;45.60;;;;;;4373417;60;21534;-34
2021/12/25 05:43:13;;;;;;;98.25;85.22;;;19.70;45.60;;;;;;4345915;60;21052;-30
2021/12/25 05:48:14;;;;;;;96.25;83.18;;;19.70;45.70;;;;;;4347920;60;21063;-37
2021/12/25 05:53:15;;;;;;;97.70;82.80;;;19.70;45.70;;;;;;4339116;64;21097;-34
2021/12/25 05:58:16;;;;;;;94.95;82.43;;;19.70;45.70;;;;;;4369099;60;21593;-35
2021/12/25 06:03:17;;;;;;;95.05;81.78;;;19.70;45.80;;;;;;4372392;60;21167;-36
2021/12/25 06:08:18;;;;;;;94.05;79.80;;;19.70;45.80;;;;;;4342004;60;21128;-34
2021/12/25 06:13:21;;;;;;;95.60;79.18;;;19.60;45.90;;;;;;4378179;60;21143;-35
2021/12/25 06:18:22;;;;;;;92.65;80.28;;;19.70;45.90;;;;;;4339033;61;21589;-32
2021/12/25 06:23:23;;;;;;;92.53;79.30;;;19.70;45.90;;;;;;4377086;60;21075;-35
2021/12/25 06:28:24;;;;;;;88.97;75.18;;;19.70;45.90;;;;;;4338731;64;21529;-34
2021/12/25 06:33:25;;;;;;;92.78;77.87;;;19.70;46.00;;;;;;4349199;60;21100;-34
2021/12/25 06:38:25;;;;;;;86.85;74.60;;;19.70;46.00;;;;;;4346919;60;21072;-34
2021/12/25 06:43:26;;;;;;;90.50;77.40;;;19.70;45.90;;;;;;4349445;60;21040;-36
2021/12/25 06:48:27;;;;;;;89.10;75.47;;;19.70;46.00;;;;;;4349739;60;21083;-35
2021/12/25 06:53:28;;;;;;;85.70;76.07;;;19.70;46.10;;;;;;4338508;64;21989;-34
2021/12/25 06:58:29;;;;;;;84.32;73.57;;;19.60;46.00;;;;;;4350195;60;21569;-35
2021/12/25 07:03:30;;;;;;;85.32;73.75;;;19.70;46.10;;;;;;4344007;60;21068;-35
2021/12/25 07:08:31;;;;;;;84.72;73.03;;;19.60;46.10;;;;;;4362061;60;21546;-37
2021/12/25 07:13:32;;;;;;;84.95;72.53;;;19.70;46.10;;;;;;4392659;60;21055;-31
2021/12/25 07:18:33;;;;;;;80.50;68.28;;;19.60;46.10;;;;;;4352179;60;21628;-34
2021/12/25 07:23:34;;;;;;;82.00;71.35;;;19.60;46.20;;;;;;4351645;60;21083;-34
2021/12/25 07:28:35;;;;;;;82.25;72.22;;;19.60;46.10;;;;;;4374800;60;21647;-32
2021/12/25 07:33:42;;;;;;;84.43;70.70;;;19.60;46.10;;;;;;4338912;64;21509;-32
2021/12/25 07:38:44;;;;;;;84.20;72.53;;;19.60;46.10;;;;;;4354096;60;21738;-33
2021/12/25 07:43:45;;;;;;;82.30;69.40;;;19.60;46.10;;;;;;4345699;60;21593;-32
2021/12/25 07:48:49;;;;;;;82.75;70.90;;;19.60;46.20;;;;;;4356041;60;21107;-34
2021/12/25 07:53:50;;;;;;;79.62;68.55;;;19.70;46.30;;;;;;4354177;60;21565;-35
2021/12/25 07:58:51;;;;;;;83.25;70.05;;;19.60;46.20;;;;;;4338602;64;21549;-37
2021/12/25 08:03:53;;;;;;;82.65;69.57;;;19.60;46.20;;;;;;4339790;60;21108;-35
2021/12/25 08:08:56;;;;;;;82.07;68.75;;;19.60;46.20;;;;;;4353878;60;21570;-33
2021/12/25 08:13:57;;;;;;;81.40;66.68;;;19.60;46.20;;;;;;4379502;60;21681;-35
2021/12/25 08:18:58;;;;;;;82.75;69.72;;;19.60;46.20;;;;;;4351679;60;21084;-33
2021/12/25 08:23:59;;;;;;;83.28;70.90;;;19.60;46.50;;;;;;4342640;60;21122;-34
2021/12/25 08:28:59;;;;;;;85.18;70.97;;;19.60;46.20;;;;;;4338734;64;21055;-35
2021/12/25 08:34:01;;;;;;;85.50;72.12;;;19.60;46.20;;;;;;4341672;60;21071;-31
2021/12/25 08:39:05;;;;;;;84.72;70.10;;;19.60;46.30;;;;;;4350714;60;21605;-35
2021/12/25 08:44:29;;;;;;;85.82;73.72;;;19.60;46.20;;;;;;4391897;60;21695;-35
2021/12/25 08:49:31;;;;;;;85.80;71.47;;;19.60;46.30;;;;;;4343491;60;21637;-36
2021/12/25 08:54:32;;;;;;;86.57;72.28;;;19.60;46.30;;;;;;4364888;60;21123;-36
2021/12/25 08:59:37;;;;;;;86.40;71.75;;;19.60;46.30;;;;;;4341652;60;21144;-37
2021/12/25 09:04:39;;;;;;;90.82;74.07;;;19.60;46.30;;;;;;4380618;60;21056;-33
2021/12/25 09:09:40;;;;;;;85.40;71.97;;;19.60;46.30;;;;;;4357249;60;21047;-35
2021/12/25 09:14:41;;;;;;;90.10;74.97;;;19.60;46.30;;;;;;4338596;64;21111;-33
2021/12/25 09:19:43;;;;;;;91.15;76.03;;;19.60;46.40;;;;;;4384494;60;21278;-35
2021/12/25 09:24:44;;;;;;;93.40;76.60;;;19.60;46.40;;;;;;4371254;60;21176;-37
2021/12/25 09:29:45;;;;;;;94.93;77.35;;;19.60;46.40;;;;;;4356322;60;21572;-33
2021/12/25 09:34:46;;;;;;;93.22;79.25;;;19.60;46.40;;;;;;4338981;64;21526;-33
2021/12/25 09:39:47;;;;;;;93.72;78.50;;;19.60;46.40;;;;;;4338688;64;21124;-34
2021/12/25 09:44:48;;;;;;;101.53;82.50;;;19.60;46.50;;;;;;4367236;60;21067;-34
2021/12/25 09:49:49;;;;;;;94.22;79.18;;;19.60;46.40;;;;;;4344491;60;21101;-36
2021/12/25 09:54:50;;;;;;;99.32;81.60;;;19.60;46.50;;;;;;4344920;60;21055;-32
2021/12/25 09:59:52;;;;;;;102.45;83.78;;;19.60;46.40;;;;;;4359137;60;21055;-33
2021/12/25 10:04:56;;;;;;;104.60;84.03;;;19.60;46.40;;;;;;4347507;60;21058;-34
2021/12/25 10:10:13;;;;;;;100.87;81.93;;;19.60;46.50;;;;;;4355015;60;21508;-36
2021/12/25 10:15:25;;;;;;;107.57;84.40;;;19.60;46.50;;;;;;4352165;60;21646;-35
2021/12/25 10:20:31;;;;;;;104.40;85.87;;;19.60;46.50;;;;;;4351170;60;21581;-38
2021/12/25 10:25:45;;;;;;;104.63;85.97;;;19.60;46.50;;;;;;4378542;60;21067;-35
2021/12/25 10:30:59;;;;;;;114.03;89.07;;;19.60;46.50;;;;;;4351965;60;21095;-36
2021/12/25 10:36:04;;;;;;;109.25;89.85;;;19.60;46.50;;;;;;4338990;64;21606;-31
2021/12/25 10:41:19;;;;;;;110.75;90.47;;;19.60;46.50;;;;;;4358412;60;21229;-37
2021/12/25 10:46:20;;;;;;;114.10;91.03;;;19.60;46.50;;;;;;4341637;60;21597;-34
2021/12/25 10:51:30;;;;;;;114.30;90.72;;;19.60;46.50;;;;;;4355838;60;21589;-36
2021/12/25 10:56:39;;;;;;;118.57;94.32;;;19.60;46.60;;;;;;4339221;60;21056;-37
2021/12/25 11:01:49;;;;;;;118.78;94.65;;;19.70;46.70;;;;;;4362334;60;21044;-36
2021/12/25 11:06:50;;;;;;;117.87;95.53;;;19.60;46.50;;;;;;4339106;64;21043;-35
2021/12/25 11:12:15;;;;;;;128.45;101.70;;;19.60;46.60;;;;;;4338715;64;21522;-36
2021/12/25 11:17:25;;;;;;;118.85;97.40;;;19.70;46.60;;;;;;4347353;60;21073;-33
2021/12/25 11:22:46;;;;;;;125.22;99.37;;;19.70;46.70;;;;;;4347448;60;21685;-33
2021/12/25 11:27:49;;;;;;;123.18;100.78;;;19.60;46.60;;;;;;4341076;60;21056;-34
2021/12/25 11:32:52;;;;;;;122.57;98.90;;;19.60;46.60;;;;;;4375477;60;21075;-36
2021/12/25 11:37:58;;;;;;;128.90;101.68;;;19.70;46.70;;;;;;4338901;64;21151;-34
2021/12/25 11:43:02;;;;;;;127.75;102.50;;;19.70;46.70;;;;;;4354158;60;22436;-37
2021/12/25 11:48:15;;;;;;;128.52;104.03;;;19.60;46.60;;;;;;4360960;60;21541;-34
2021/12/25 11:58:46;;;;;;;129.48;103.60;;;19.70;46.70;;;;;;4348563;60;21191;-34
2021/12/25 12:03:54;;;;;;;132.05;106.47;;;19.70;46.80;;;;;;4341849;60;21061;-33
2021/12/25 12:09:09;;;;;;;129.93;106.18;;;19.70;46.70;;;;;;4343948;60;21541;-34
2021/12/25 12:14:28;;;;;;;125.70;102.45;;;19.70;46.70;;;;;;4354295;60;22066;-37
2021/12/25 12:19:50;;;;;;;132.85;105.90;;;19.70;47.40;;;;;;4447630;60;21115;-33
2021/12/25 12:26:50;;;;;;;133.57;107.78;;;19.70;46.70;;;;;;4366491;60;21490;-33
2021/12/25 12:31:51;;;;;;;133.90;106.20;;;19.70;46.80;;;;;;4346286;60;21051;-34
2021/12/25 12:36:52;;;;;;;130.35;104.80;;;19.70;46.80;;;;;;4358509;60;21610;-35
2021/12/25 12:41:54;;;;;;;129.25;107.28;;;19.70;46.80;;;;;;4354966;60;21040;-35
2021/12/25 12:47:02;;;;;;;134.63;109.45;;;19.70;46.80;;;;;;4359173;60;21043;-31
2021/12/25 12:53:54;;;;;;;;;;;19.70;46.80;;;;;;4352955;60;21096;-35
2021/12/25 12:58:57;;;;;;;134.68;108.63;;;19.70;46.90;;;;;;4344955;60;20374;-36
2021/12/25 13:04:00;;;;;;;135.63;109.78;;;19.70;46.80;;;;;;4344130;60;21027;-30
2021/12/25 13:09:05;;;;;;;139.37;112.90;;;19.70;46.80;;;;;;4362498;60;21063;-33
2021/12/25 13:14:08;;;;;;;140.37;113.50;;;19.70;46.80;;;;;;4352217;60;21536;-35
2021/12/25 13:19:10;;;;;;;139.82;112.20;;;19.70;46.80;;;;;;4339111;60;21613;-35
2021/12/25 13:24:15;;;;;;;137.32;111.18;;;19.70;46.80;;;;;;4383864;60;21104;-36
2021/12/25 13:29:22;;;;;;;138.70;112.97;;;19.70;46.80;;;;;;4338314;64;21079;-36
2021/12/25 13:34:24;;;;;;;251.37;192.05;;;19.70;46.90;;;;;;4343805;60;21104;-28
2021/12/25 13:39:32;;;;;;;348.38;275.25;;;19.70;47.90;;;;;;4354179;60;21563;-36
2021/12/25 13:44:35;;;;;;;345.10;270.88;;;19.70;49.00;;;;;;4370000;60;21569;-29
2021/12/25 13:49:57;;;;;;;319.83;252.95;;;19.70;49.30;;;;;;4338716;64;21091;-35
2021/12/25 13:55:34;;;;;;;307.58;243.77;;;19.70;48.80;;;;;;4344692;60;21119;-31
2021/12/25 14:00:44;;;;;;;303.60;237.45;;;19.70;48.80;;;;;;4351127;60;21113;-36
2021/12/25 14:05:48;;;;;;;300.70;236.50;;;19.70;48.70;;;;;;4368741;60;21580;-33
2021/12/25 14:10:48;;;;;;;292.10;226.85;;;19.70;49.30;;;;;;4345637;60;21051;-35
2021/12/25 14:15:53;;;;;;;283.62;226.57;;;19.70;48.60;;;;;;4339312;61;21056;-36
2021/12/25 14:21:10;;;;;;;279.85;221.00;;;19.70;48.60;;;;;;4360518;60;21581;-36
2021/12/25 14:26:20;;;;;;;272.45;214.25;;;19.70;48.50;;;;;;4367031;60;21138;-34
2021/12/25 14:31:21;;;;;;;273.55;216.23;;;19.70;48.50;;;;;;4339034;64;21555;-31
2021/12/25 14:36:24;;;;;;;272.73;217.98;;;19.70;48.40;;;;;;4374537;60;21058;-35
2021/12/25 14:41:28;;;;;;;263.33;213.90;;;19.70;48.40;;;;;;4365177;60;21172;-35
2021/12/25 14:46:29;;;;;;;255.57;202.02;;;19.70;48.40;;;;;;4365061;60;21621;-35
2021/12/25 14:51:39;;;;;;;262.38;205.77;;;19.70;48.40;;;;;;4344069;60;21044;-35
2021/12/25 14:56:45;;;;;;;259.45;207.65;;;19.70;48.30;;;;;;4338841;64;21059;-35
2021/12/25 15:01:50;;;;;;;252.07;202.57;;;19.70;48.30;;;;;;4347236;60;21066;-36
2021/12/25 15:06:57;;;;;;;245.80;196.18;;;19.70;48.30;;;;;;4339108;64;21521;-35
2021/12/25 15:12:39;;;;;;;246.23;197.13;;;19.70;48.30;;;;;;4343620;60;21533;-35
2021/12/25 15:17:45;;;;;;;246.35;197.37;;;19.70;48.30;;;;;;4338852;64;21533;-36
2021/12/25 15:22:46;;;;;;;248.05;194.45;;;19.70;48.20;;;;;;4339093;64;21143;-33
2021/12/25 15:27:52;;;;;;;243.55;195.95;;;19.70;48.20;;;;;;4351017;60;21119;-34
2021/12/25 15:32:56;;;;;;;244.25;192.50;;;19.70;48.20;;;;;;4340704;60;21227;-36
2021/12/25 15:37:57;;;;;;;248.75;194.40;;;19.70;48.20;;;;;;4342277;60;21148;-35
2021/12/25 15:42:59;;;;;;;240.65;190.73;;;19.70;48.40;;;;;;4356747;60;21633;-35
2021/12/25 15:48:00;;;;;;;236.82;190.40;;;19.70;48.20;;;;;;4348701;60;21176;-35
2021/12/25 15:53:03;;;;;;;230.68;185.95;;;19.70;48.20;;;;;;4348552;60;21068;-36
2021/12/25 15:58:07;;;;;;;232.60;192.02;;;19.80;48.20;;;;;;4345949;60;21178;-36
2021/12/25 16:03:08;;;;;;;238.37;189.55;;;19.70;48.10;;;;;;4339371;64;21614;-35
2021/12/25 16:08:09;;;;;;;237.98;186.85;;;19.70;48.10;;;;;;4343161;60;21078;-35
2021/12/25 16:13:11;;;;;;;235.95;189.00;;;19.80;48.20;;;;;;4342781;60;21537;-36
2021/12/25 16:18:12;;;;;;;229.60;181.50;;;19.70;48.10;;;;;;4341851;60;21565;-36
2021/12/25 16:23:14;;;;;;;230.90;187.98;;;19.80;48.10;;;;;;4339190;60;21191;-36
2021/12/25 16:28:17;;;;;;;227.20;183.57;;;19.80;48.10;;;;;;4361611;60;21059;-33
2021/12/25 16:33:18;;;;;;;228.82;185.27;;;19.70;48.00;;;;;;4339293;61;21052;-37
2021/12/25 16:38:19;;;;;;;229.73;186.07;;;19.80;48.10;;;;;;4343976;60;21569;-35
2021/12/25 16:43:20;;;;;;;227.57;182.43;;;19.70;48.00;;;;;;4355383;60;21112;-37
2021/12/25 16:48:21;;;;;;;233.23;184.98;;;19.80;48.20;;;;;;4345607;60;21055;-36
2021/12/25 16:53:23;;;;;;;232.00;183.05;;;19.70;48.00;;;;;;4340227;60;21079;-37
2021/12/25 16:58:28;;;;;;;229.90;184.98;;;19.80;48.00;;;;;;4339062;61;21068;-35
2021/12/25 17:03:29;;;;;;;225.27;179.80;;;19.80;48.00;;;;;;4339492;60;21441;-35
2021/12/25 17:08:31;;;;;;;228.27;183.43;;;19.80;48.10;;;;;;4354551;60;21650;-34
2021/12/25 17:13:32;;;;;;;224.25;181.90;;;19.80;48.00;;;;;;4365671;60;21115;-34
2021/12/25 17:18:33;;;;;;;222.73;178.70;;;19.80;48.00;;;;;;4350300;60;21601;-36
2021/12/25 17:23:34;;;;;;;219.15;175.82;;;19.80;48.00;;;;;;4351762;60;21123;-35
2021/12/25 17:28:35;;;;;;;213.35;171.95;;;19.80;48.00;;;;;;4355244;60;21518;-36
2021/12/25 17:33:36;;;;;;;223.70;181.12;;;19.80;48.00;;;;;;4356489;60;21079;-36
2021/12/25 17:38:40;;;;;;;215.05;173.65;;;19.80;47.90;;;;;;4371493;60;21060;-33
2021/12/25 17:43:42;;;;;;;215.27;173.40;;;19.80;48.00;;;;;;4353017;60;21569;-34
2021/12/25 17:48:43;;;;;;;217.62;171.48;;;19.80;47.90;;;;;;4372713;60;21055;-37
2021/12/25 17:53:44;;;;;;;221.35;172.10;;;19.80;47.90;;;;;;4352453;60;21548;-35
2021/12/25 17:58:45;;;;;;;214.57;169.85;;;19.80;47.90;;;;;;4338175;64;21135;-35
2021/12/25 18:03:46;;;;;;;211.75;169.98;;;19.80;47.90;;;;;;4363831;60;21075;-35
2021/12/25 18:08:47;;;;;;;211.02;169.45;;;19.80;47.90;;;;;;4391580;60;21071;-35
2021/12/25 18:13:49;;;;;;;208.00;168.15;;;19.80;47.90;;;;;;4354841;60;21155;-35
2021/12/25 18:18:51;;;;;;;214.15;173.27;;;19.80;47.90;;;;;;4354349;60;21099;-35
2021/12/25 18:23:53;;;;;;;208.55;167.85;;;19.80;47.90;;;;;;4339028;60;21089;-34
2021/12/25 18:28:55;;;;;;;209.52;163.62;;;19.80;47.90;;;;;;4356399;60;21131;-34
2021/12/25 18:33:56;;;;;;;219.57;174.57;;;19.80;47.90;;;;;;4364517;60;21179;-35
2021/12/25 18:39:00;;;;;;;214.93;171.57;;;19.80;47.90;;;;;;4348821;60;21560;-31
2021/12/25 18:44:02;;;;;;;219.87;177.35;;;19.80;47.90;;;;;;4341735;60;21582;-37
2021/12/25 18:49:03;;;;;;;212.88;169.25;;;19.80;47.90;;;;;;4407754;60;21059;-35
2021/12/25 18:54:04;;;;;;;209.60;165.65;;;19.80;47.90;;;;;;4343688;60;21119;-36
2021/12/25 18:59:06;;;;;;;207.70;168.23;;;19.80;47.90;;;;;;4339312;64;21071;-36
2021/12/25 19:04:06;;;;;;;207.43;164.68;;;19.80;47.90;;;;;;4362548;60;21076;-36
2021/12/25 19:09:07;;;;;;;201.68;160.77;;;19.80;48.00;;;;;;4344438;60;22034;-36
2021/12/25 19:14:08;;;;;;;211.35;166.77;;;19.80;48.00;;;;;;4339129;64;21051;-36
2021/12/25 19:19:09;;;;;;;204.02;162.80;;;19.80;47.90;;;;;;4345985;60;21092;-36
2021/12/25 19:24:11;;;;;;;211.90;168.48;;;19.80;47.90;;;;;;4339551;60;21195;-37
2021/12/25 19:29:12;;;;;;;204.43;162.10;;;19.80;48.00;;;;;;4339922;60;21721;-35
2021/12/25 19:34:13;;;;;;;207.35;166.73;;;19.80;48.00;;;;;;4352398;60;21102;-37
2021/12/25 19:39:15;;;;;;;204.23;163.10;;;19.80;48.00;;;;;;4365746;60;21524;-35
2021/12/25 19:44:17;;;;;;;207.30;162.10;;;19.80;48.00;;;;;;4338947;64;21096;-34
2021/12/25 19:49:20;;;;;;;203.10;159.25;;;19.80;48.00;;;;;;4339597;60;21586;-35
2021/12/25 19:54:21;;;;;;;200.95;160.00;;;19.80;48.00;;;;;;4359682;60;21052;-32
2021/12/25 19:59:22;;;;;;;202.25;157.82;;;19.80;48.00;;;;;;4352601;60;21545;-35
2021/12/25 20:04:23;;;;;;;194.25;154.98;;;19.80;48.00;;;;;;4339979;60;21052;-34
2021/12/25 20:09:24;;;;;;;200.50;157.20;;;19.80;48.00;;;;;;4338990;64;21047;-35
2021/12/25 20:14:25;;;;;;;195.02;153.27;;;19.80;48.00;;;;;;4361710;60;21060;-33
2021/12/25 20:19:26;;;;;;;200.20;154.48;;;19.80;48.00;;;;;;4365099;60;21652;-35
2021/12/25 20:24:27;;;;;;;201.27;156.82;;;19.80;48.00;;;;;;4345501;60;21143;-35
2021/12/25 20:29:28;;;;;;;198.68;154.93;;;19.80;48.00;;;;;;4338962;64;21616;-35
2021/12/25 20:34:29;;;;;;;192.82;151.82;;;19.80;48.00;;;;;;4340003;60;21517;-35
2021/12/25 20:39:30;;;;;;;195.20;150.10;;;19.80;48.00;;;;;;4338442;64;21067;-35
2021/12/25 20:50:06;;;;;;;189.68;151.10;;;19.80;48.10;;;;;;4340389;60;21084;-36
2021/12/25 20:55:08;;;;;;;188.55;151.57;;;19.80;48.00;;;;;;4339316;64;21092;-36
2021/12/25 21:00:11;;;;;;;189.95;152.77;;;19.80;48.10;;;;;;4342435;60;21136;-33
2021/12/25 21:05:14;;;;;;;190.30;150.10;;;19.80;48.00;;;;;;4351383;60;21556;-35
2021/12/25 21:10:15;;;;;;;183.93;146.52;;;19.80;48.00;;;;;;4342216;60;21106;-36
2021/12/25 21:15:16;;;;;;;186.23;149.90;;;19.80;48.10;;;;;;4338888;64;21067;-35
2021/12/25 21:20:18;;;;;;;184.43;148.07;;;19.80;48.00;;;;;;4337969;61;22457;-34
2021/12/25 21:25:20;;;;;;;181.93;145.27;;;19.80;48.10;;;;;;4373063;60;21139;-30
2021/12/25 21:30:22;;;;;;;178.73;143.75;;;19.80;48.10;;;;;;4379087;60;21071;-33
2021/12/25 21:35:25;;;;;;;184.60;146.00;;;19.80;48.10;;;;;;4352460;60;21199;-36
2021/12/25 21:40:29;;;;;;;176.10;142.20;;;19.80;48.10;;;;;;4375293;60;21785;-36
2021/12/25 21:45:30;;;;;;;181.80;145.07;;;19.80;48.10;;;;;;4338881;64;21056;-33
2021/12/25 21:50:31;;;;;;;177.80;144.27;;;19.80;48.10;;;;;;4346490;60;21043;-36
2021/12/25 21:55:34;;;;;;;177.00;140.82;;;19.80;48.20;;;;;;4347036;60;21119;-35
2021/12/25 22:00:38;;;;;;;176.90;141.65;;;19.80;48.10;;;;;;4359063;60;21176;-34
2021/12/25 22:05:41;;;;;;;174.52;141.20;;;19.80;48.20;;;;;;4338467;64;21092;-33
2021/12/25 22:10:46;;;;;;;176.00;140.98;;;19.80;48.10;;;;;;4355171;60;21586;-33
2021/12/25 22:15:48;;;;;;;174.55;142.62;;;19.80;48.10;;;;;;4339332;61;22324;-33
2021/12/25 22:20:50;;;;;;;166.77;135.27;;;19.80;48.10;;;;;;4349848;60;21115;-34
2021/12/25 22:25:51;;;;;;;176.98;140.75;;;19.80;48.10;;;;;;4339635;60;21047;-35
2021/12/25 22:30:53;;;;;;;175.57;140.20;;;19.80;48.10;;;;;;4348714;60;21558;-35
2021/12/25 22:35:54;;;;;;;165.88;133.12;;;19.80;48.10;;;;;;4374102;60;21683;-35
2021/12/25 22:40:56;;;;;;;169.00;136.15;;;19.80;48.10;;;;;;4354849;60;21119;-36
2021/12/25 22:45:58;;;;;;;167.52;135.60;;;19.80;48.10;;;;;;4338985;64;21096;-36
2021/12/25 22:50:59;;;;;;;166.30;131.80;;;19.80;48.10;;;;;;4340427;60;21155;-36
2021/12/25 22:56:00;;;;;;;166.00;132.52;;;19.80;48.10;;;;;;4343981;60;21047;-37
2021/12/25 23:01:09;;;;;;;155.60;126.75;;;19.80;48.20;;;;;;4346016;60;21055;-37
2021/12/25 23:06:11;;;;;;;161.80;130.32;;;19.80;48.10;;;;;;4360565;60;21117;-34
2021/12/25 23:11:19;;;;;;;160.80;129.63;;;19.80;48.20;;;;;;4339509;64;21143;-31
2021/12/25 23:16:22;;;;;;;157.50;128.68;;;19.80;48.10;;;;;;4347742;60;21648;-36
2021/12/25 23:21:24;;;;;;;154.63;127.68;;;19.80;48.30;;;;;;4377694;60;21079;-32
2021/12/25 23:26:25;;;;;;;160.27;128.80;;;19.80;48.80;;;;;;4354299;60;21059;-34
2021/12/25 23:31:26;;;;;;;152.45;125.12;;;19.80;48.20;;;;;;4339231;61;21627;-35
2021/12/25 23:36:27;;;;;;;152.25;124.57;;;19.80;48.20;;;;;;4347532;60;21072;-34
2021/12/25 23:41:29;;;;;;;152.32;124.87;;;19.80;48.20;;;;;;4338504;64;21135;-36
2021/12/25 23:46:30;;;;;;;153.35;125.07;;;19.80;48.20;;;;;;4342193;60;21056;-34
2021/12/25 23:51:31;;;;;;;152.10;126.18;;;19.80;48.20;;;;;;4347135;60;21088;-35
2021/12/25 23:56:33;;;;;;;148.02;122.15;;;19.80;48.20;;;;;;4348498;60;21534;-34
